createdAt,value
2017-10-14T00:01:51.359Z,15.30
2017-10-14T00:04:22.430Z,15.30
2017-10-14T00:06:53.165Z,15.30
2017-10-14T00:09:23.834Z,15.20
2017-10-14T00:11:54.604Z,15.20
2017-10-14T00:14:26.254Z,15.10
2017-10-14T00:16:57.800Z,15.20
2017-10-14T00:19:29.032Z,15.20
2017-10-14T00:21:59.942Z,15.20
2017-10-14T00:24:30.628Z,15.10
2017-10-14T00:27:01.935Z,15.10
2017-10-14T00:29:32.418Z,15.10
2017-10-14T00:32:03.107Z,15.10
2017-10-14T00:34:34.656Z,15.20
2017-10-14T00:37:05.402Z,15.20
2017-10-14T00:39:37.934Z,15.20
2017-10-14T00:42:08.304Z,15.20
2017-10-14T00:44:39.991Z,15.30
2017-10-14T00:47:10.639Z,15.30
2017-10-14T00:49:41.331Z,15.40
2017-10-14T00:52:12.249Z,15.50
2017-10-14T00:54:42.536Z,15.50
2017-10-14T00:57:13.860Z,15.50
2017-10-14T00:59:44.595Z,15.50
2017-10-14T01:02:15.641Z,15.50
2017-10-14T01:04:46.601Z,15.50
2017-10-14T01:07:17.199Z,15.40
2017-10-14T01:09:48.971Z,15.50
2017-10-14T01:12:19.837Z,15.40
2017-10-14T01:14:50.597Z,15.50
2017-10-14T01:17:21.704Z,15.50
2017-10-14T01:19:53.134Z,15.40
2017-10-14T01:22:23.938Z,15.40
2017-10-14T01:24:54.469Z,15.40
2017-10-14T01:27:27.082Z,15.40
2017-10-14T01:29:58.530Z,15.40
2017-10-14T01:32:29.412Z,15.40
2017-10-14T01:35:00.018Z,15.40
2017-10-14T01:37:30.563Z,15.40
2017-10-14T01:40:01.060Z,15.40
2017-10-14T01:42:31.966Z,15.40
2017-10-14T01:45:03.683Z,15.40
2017-10-14T01:47:34.702Z,15.40
2017-10-14T01:50:05.463Z,15.50
2017-10-14T01:52:36.416Z,15.40
2017-10-14T01:55:06.852Z,15.50
2017-10-14T01:57:37.551Z,15.50
2017-10-14T02:00:08.241Z,15.50
2017-10-14T02:02:39.109Z,15.50
2017-10-14T02:05:09.229Z,15.50
2017-10-14T02:07:40.286Z,15.50
2017-10-14T02:10:10.875Z,15.50
2017-10-14T02:12:41.637Z,15.50
2017-10-14T02:15:12.091Z,15.50
2017-10-14T02:17:42.446Z,15.50
2017-10-14T02:20:13.417Z,15.50
2017-10-14T02:22:44.228Z,15.50
2017-10-14T02:25:15.201Z,15.50
2017-10-14T02:27:46.392Z,15.50
2017-10-14T02:30:17.314Z,15.50
2017-10-14T02:32:48.381Z,15.50
2017-10-14T02:35:19.820Z,15.50
2017-10-14T02:37:50.919Z,15.50
2017-10-14T02:40:21.791Z,15.50
2017-10-14T02:42:54.034Z,15.60
2017-10-14T02:45:25.560Z,15.60
2017-10-14T02:47:56.582Z,15.60
2017-10-14T02:50:27.102Z,15.60
2017-10-14T02:52:58.174Z,15.60
2017-10-14T02:55:28.988Z,15.60
2017-10-14T02:57:59.760Z,15.50
2017-10-14T03:00:30.139Z,15.50
2017-10-14T03:03:01.546Z,15.40
2017-10-14T03:05:32.139Z,15.40
2017-10-14T03:08:02.971Z,15.40
2017-10-14T03:10:33.572Z,15.30
2017-10-14T03:13:04.957Z,15.20
2017-10-14T03:15:35.533Z,15.20
2017-10-14T03:18:06.120Z,15.10
2017-10-14T03:20:36.990Z,15.10
2017-10-14T03:23:07.779Z,15.00
2017-10-14T03:25:37.965Z,15.00
2017-10-14T03:28:08.470Z,15.00
2017-10-14T03:30:39.320Z,15.00
2017-10-14T03:33:10.751Z,14.90
2017-10-14T03:35:41.418Z,15.00
2017-10-14T03:38:11.813Z,14.90
2017-10-14T03:40:42.556Z,14.90
2017-10-14T03:43:13.360Z,14.90
2017-10-14T03:45:44.144Z,14.90
2017-10-14T03:48:14.523Z,14.90
2017-10-14T03:50:46.039Z,14.80
2017-10-14T03:53:16.892Z,14.80
2017-10-14T03:55:47.103Z,14.70
2017-10-14T03:58:18.209Z,14.70
2017-10-14T04:00:50.854Z,14.60
2017-10-14T04:03:21.475Z,14.60
2017-10-14T04:05:51.726Z,14.60
2017-10-14T04:08:22.588Z,14.60
2017-10-14T04:10:53.449Z,14.60
2017-10-14T04:13:25.043Z,14.60
2017-10-14T04:15:55.611Z,14.50
2017-10-14T04:18:27.262Z,14.50
2017-10-14T04:20:57.573Z,14.50
2017-10-14T04:23:28.472Z,14.50
2017-10-14T04:25:59.318Z,14.40
2017-10-14T04:28:30.123Z,14.40
2017-10-14T04:31:00.881Z,14.40
2017-10-14T04:33:31.657Z,14.40
2017-10-14T04:36:02.430Z,14.40
2017-10-14T04:38:33.258Z,14.40
2017-10-14T04:41:04.636Z,14.30
2017-10-14T04:43:35.556Z,14.30
2017-10-14T04:46:06.038Z,14.30
2017-10-14T04:48:37.324Z,14.20
2017-10-14T04:51:08.478Z,14.20
2017-10-14T04:53:39.349Z,14.20
2017-10-14T04:56:10.103Z,14.20
2017-10-14T04:58:41.744Z,14.20
2017-10-14T05:01:12.392Z,14.20
2017-10-14T05:03:42.929Z,14.20
2017-10-14T05:06:13.264Z,14.20
2017-10-14T05:08:44.805Z,14.20
2017-10-14T05:11:16.019Z,14.20
2017-10-14T05:13:46.849Z,14.20
2017-10-14T05:16:17.942Z,14.20
2017-10-14T05:18:48.674Z,14.20
2017-10-14T05:21:18.914Z,14.20
2017-10-14T05:23:49.761Z,14.30
2017-10-14T05:26:20.918Z,14.30
2017-10-14T05:28:51.939Z,14.30
2017-10-14T05:31:22.646Z,14.30
2017-10-14T05:33:54.068Z,14.30
2017-10-14T05:36:24.635Z,14.30
2017-10-14T05:38:55.157Z,14.30
2017-10-14T05:41:25.513Z,14.30
2017-10-14T05:43:57.241Z,14.20
2017-10-14T05:46:28.473Z,14.20
2017-10-14T05:48:59.480Z,14.30
2017-10-14T05:51:30.636Z,14.30
2017-10-14T05:54:02.089Z,14.30
2017-10-14T05:56:32.869Z,14.20
2017-10-14T05:59:03.876Z,14.30
2017-10-14T06:01:35.761Z,14.30
2017-10-14T06:04:05.968Z,14.30
2017-10-14T06:06:37.274Z,14.30
2017-10-14T06:09:07.822Z,14.30
2017-10-14T06:11:38.766Z,14.30
2017-10-14T06:14:10.309Z,14.40
2017-10-14T06:16:41.245Z,14.40
2017-10-14T06:19:12.159Z,14.50
2017-10-14T06:21:43.168Z,14.60
2017-10-14T06:24:14.150Z,14.60
2017-10-14T06:26:45.130Z,14.60
2017-10-14T06:29:16.650Z,14.50
2017-10-14T06:31:46.936Z,14.50
2017-10-14T06:34:17.558Z,14.50
2017-10-14T06:36:48.216Z,14.40
2017-10-14T06:39:18.940Z,14.40
2017-10-14T06:41:49.345Z,14.50
2017-10-14T06:44:20.182Z,14.50
2017-10-14T06:46:50.152Z,14.60
2017-10-14T06:49:20.944Z,14.60
2017-10-14T06:51:51.411Z,14.60
2017-10-14T06:54:22.165Z,14.70
2017-10-14T06:56:53.017Z,14.70
2017-10-14T06:59:24.784Z,14.80
2017-10-14T07:01:55.412Z,14.80
2017-10-14T07:04:26.194Z,14.90
2017-10-14T07:06:56.965Z,14.90
2017-10-14T07:09:28.540Z,15.00
2017-10-14T07:11:59.335Z,15.00
2017-10-14T07:14:31.064Z,15.20
2017-10-14T07:17:01.738Z,15.20
2017-10-14T07:19:33.429Z,15.30
2017-10-14T07:22:04.174Z,15.30
2017-10-14T07:24:36.103Z,15.70
2017-10-14T07:27:06.683Z,15.70
2017-10-14T07:29:37.650Z,15.80
2017-10-14T07:32:08.564Z,16.00
2017-10-14T07:34:39.233Z,16.00
2017-10-14T07:37:10.117Z,16.10
2017-10-14T07:39:40.906Z,16.20
2017-10-14T07:42:12.211Z,16.40
2017-10-14T07:44:42.889Z,16.40
2017-10-14T07:47:14.539Z,16.60
2017-10-14T07:49:45.179Z,16.60
2017-10-14T07:52:15.842Z,16.80
2017-10-14T07:54:46.858Z,16.90
2017-10-14T07:57:17.220Z,17.20
2017-10-14T07:59:47.974Z,17.50
2017-10-14T08:02:19.087Z,17.80
2017-10-14T08:04:49.891Z,18.10
2017-10-14T08:07:20.548Z,18.40
2017-10-14T08:09:51.357Z,19.00
2017-10-14T08:12:22.866Z,20.20
2017-10-14T08:14:53.725Z,20.20
2017-10-14T08:17:24.878Z,21.10
2017-10-14T08:19:56.245Z,21.50
2017-10-14T08:22:26.640Z,21.50
2017-10-14T08:24:58.414Z,22.60
2017-10-14T08:27:30.292Z,22.80
2017-10-14T08:30:01.483Z,22.80
2017-10-14T08:32:32.050Z,22.80
2017-10-14T08:35:03.693Z,23.90
2017-10-14T08:37:35.002Z,24.00
2017-10-14T08:40:05.820Z,24.00
2017-10-14T08:42:37.407Z,24.40
2017-10-14T08:45:08.643Z,24.30
2017-10-14T08:47:39.430Z,24.30
2017-10-14T08:50:10.012Z,24.30
2017-10-14T08:52:41.485Z,24.00
2017-10-14T08:55:12.404Z,23.90
2017-10-14T08:57:42.493Z,23.90
2017-10-14T09:00:14.320Z,24.20
2017-10-14T09:02:45.201Z,24.20
2017-10-14T09:05:16.351Z,24.60
2017-10-14T09:07:47.397Z,24.90
2017-10-14T09:10:18.248Z,25.10
2017-10-14T09:12:49.273Z,25.10
2017-10-14T09:15:21.029Z,25.00
2017-10-14T09:17:51.863Z,25.00
2017-10-14T09:20:22.288Z,25.20
2017-10-14T09:22:53.161Z,24.70
2017-10-14T09:25:23.959Z,24.50
2017-10-14T09:27:54.582Z,25.00
2017-10-14T09:30:25.633Z,25.40
2017-10-14T09:32:56.371Z,25.30
2017-10-14T09:35:27.713Z,25.10
2017-10-14T09:37:59.745Z,25.20
2017-10-14T09:40:30.697Z,25.20
2017-10-14T09:43:02.805Z,25.90
2017-10-14T09:45:33.685Z,25.90
2017-10-14T09:48:04.765Z,26.30
2017-10-14T09:50:35.921Z,26.70
2017-10-14T09:53:06.182Z,27.00
2017-10-14T09:55:37.016Z,26.50
2017-10-14T09:58:07.897Z,26.40
2017-10-14T10:00:38.313Z,26.20
2017-10-14T10:03:09.001Z,26.20
2017-10-14T10:05:39.900Z,26.60
2017-10-14T10:08:10.527Z,26.70
2017-10-14T10:10:41.168Z,27.00
2017-10-14T10:13:12.154Z,26.90
2017-10-14T10:15:42.929Z,26.60
2017-10-14T10:18:14.070Z,26.80
2017-10-14T10:20:44.810Z,26.90
2017-10-14T10:23:15.680Z,26.70
2017-10-14T10:25:47.617Z,26.70
2017-10-14T10:28:18.340Z,26.70
2017-10-14T10:30:49.417Z,26.70
2017-10-14T10:33:20.616Z,26.60
2017-10-14T10:35:51.585Z,26.70
2017-10-14T10:38:22.509Z,27.00
2017-10-14T10:40:53.388Z,27.10
2017-10-14T10:43:24.832Z,27.20
2017-10-14T10:45:56.126Z,27.30
2017-10-14T10:48:26.935Z,27.30
2017-10-14T10:50:57.563Z,27.60
2017-10-14T10:53:29.114Z,27.90
2017-10-14T10:56:00.332Z,28.10
2017-10-14T10:58:31.248Z,28.00
2017-10-14T11:01:01.628Z,27.30
2017-10-14T11:03:34.996Z,26.80
2017-10-14T11:06:06.413Z,27.00
2017-10-14T11:08:37.285Z,27.00
2017-10-14T11:11:07.506Z,27.30
2017-10-14T11:13:38.491Z,27.30
2017-10-14T11:16:09.417Z,27.20
2017-10-14T11:18:40.260Z,26.70
2017-10-14T11:21:11.220Z,27.00
2017-10-14T11:23:42.890Z,27.00
2017-10-14T11:26:13.583Z,27.00
2017-10-14T11:28:45.759Z,27.20
2017-10-14T11:31:17.060Z,27.20
2017-10-14T11:33:48.313Z,27.30
2017-10-14T11:36:20.068Z,27.40
2017-10-14T11:38:51.473Z,27.30
2017-10-14T11:41:22.163Z,27.30
2017-10-14T11:43:53.402Z,27.60
2017-10-14T11:46:24.521Z,27.20
2017-10-14T11:48:54.728Z,27.20
2017-10-14T11:51:25.919Z,26.90
2017-10-14T11:53:56.604Z,26.90
2017-10-14T11:56:28.024Z,27.40
2017-10-14T11:58:59.563Z,27.40
2017-10-14T12:01:30.019Z,27.30
2017-10-14T12:04:01.827Z,27.40
2017-10-14T12:06:33.192Z,27.40
2017-10-14T12:09:04.817Z,27.90
2017-10-14T12:11:35.458Z,27.90
2017-10-14T12:14:06.314Z,27.80
2017-10-14T12:16:37.387Z,27.60
2017-10-14T12:19:08.785Z,27.30
2017-10-14T12:21:39.738Z,27.30
2017-10-14T12:24:10.972Z,27.50
2017-10-14T12:26:43.357Z,28.10
2017-10-14T12:29:15.455Z,27.40
2017-10-14T12:31:46.441Z,27.40
2017-10-14T12:34:17.720Z,27.50
2017-10-14T12:36:48.778Z,27.40
2017-10-14T12:39:20.040Z,27.50
2017-10-14T12:41:51.347Z,27.50
2017-10-14T12:44:22.066Z,27.40
2017-10-14T12:46:53.461Z,26.60
2017-10-14T12:49:24.781Z,26.60
2017-10-14T12:51:55.597Z,26.80
2017-10-14T12:54:26.865Z,27.40
2017-10-14T12:56:57.563Z,27.40
2017-10-14T12:59:28.507Z,27.60
2017-10-14T13:01:59.959Z,27.50
2017-10-14T13:04:30.863Z,27.60
2017-10-14T13:07:02.387Z,27.50
2017-10-14T13:09:33.031Z,27.80
2017-10-14T13:12:04.302Z,28.00
2017-10-14T13:14:35.398Z,27.60
2017-10-14T13:17:07.728Z,27.80
2017-10-14T13:19:39.192Z,27.90
2017-10-14T13:22:10.334Z,27.80
2017-10-14T13:24:41.793Z,27.70
2017-10-14T13:27:12.586Z,27.70
2017-10-14T13:29:43.441Z,27.90
2017-10-14T13:32:14.723Z,27.60
2017-10-14T13:34:45.460Z,27.40
2017-10-14T13:37:17.208Z,27.40
2017-10-14T13:39:48.761Z,27.00
2017-10-14T13:42:20.565Z,27.00
2017-10-14T13:44:52.531Z,26.90
2017-10-14T13:47:25.174Z,27.00
2017-10-14T13:49:56.409Z,26.90
2017-10-14T13:52:27.952Z,26.80
2017-10-14T13:54:59.910Z,26.80
2017-10-14T13:57:31.348Z,26.50
2017-10-14T14:00:02.527Z,26.30
2017-10-14T14:02:34.334Z,26.30
2017-10-14T14:05:05.900Z,26.20
2017-10-14T14:07:38.602Z,26.60
2017-10-14T14:10:10.711Z,26.60
2017-10-14T14:12:42.114Z,26.60
2017-10-14T14:15:14.369Z,26.60
2017-10-14T14:17:45.979Z,26.60
2017-10-14T14:20:17.394Z,26.60
2017-10-14T14:22:48.965Z,26.60
2017-10-14T14:25:20.555Z,26.60
2017-10-14T14:27:53.620Z,25.90
2017-10-14T14:30:25.727Z,25.90
2017-10-14T14:32:57.806Z,25.80
2017-10-14T14:35:29.053Z,25.80
2017-10-14T14:38:00.692Z,25.80
2017-10-14T14:40:32.267Z,25.70
2017-10-14T14:43:03.757Z,25.70
2017-10-14T14:45:35.008Z,25.50
2017-10-14T14:48:07.191Z,25.20
2017-10-14T14:50:38.876Z,25.00
2017-10-14T14:53:11.522Z,24.30
2017-10-14T14:55:44.115Z,24.30
2017-10-14T14:58:17.056Z,23.70
2017-10-14T15:00:48.705Z,23.70
2017-10-14T15:03:19.710Z,23.60
2017-10-14T15:05:51.136Z,23.30
2017-10-14T15:08:22.643Z,23.10
2017-10-14T15:10:54.524Z,23.20
2017-10-14T15:13:26.820Z,23.10
2017-10-14T15:15:59.089Z,23.00
2017-10-14T15:18:30.479Z,23.00
2017-10-14T15:21:01.818Z,22.90
2017-10-14T15:23:34.541Z,22.70
2017-10-14T15:26:05.750Z,22.70
2017-10-14T15:28:36.552Z,22.60
2017-10-14T15:31:08.166Z,22.50
2017-10-14T15:33:40.274Z,22.40
2017-10-14T15:36:12.078Z,22.50
2017-10-14T15:38:42.865Z,22.50
2017-10-14T15:41:15.121Z,22.40
2017-10-14T15:43:46.624Z,22.30
2017-10-14T15:46:17.828Z,22.30
2017-10-14T15:48:49.180Z,22.30
2017-10-14T15:51:21.127Z,22.20
2017-10-14T15:53:52.842Z,22.20
2017-10-14T15:56:23.760Z,22.10
2017-10-14T15:58:55.675Z,22.10
2017-10-14T16:01:27.343Z,22.10
2017-10-14T16:03:58.650Z,22.10
2017-10-14T16:06:30.876Z,21.90
2017-10-14T16:09:03.565Z,21.90
2017-10-14T16:11:35.084Z,21.90
2017-10-14T16:14:06.617Z,21.90
2017-10-14T16:16:38.581Z,21.70
2017-10-14T16:19:10.842Z,21.60
2017-10-14T16:21:42.376Z,21.60
2017-10-14T16:24:13.675Z,21.50
2017-10-14T16:26:45.552Z,21.50
2017-10-14T16:29:17.029Z,21.40
2017-10-14T16:31:48.684Z,21.40
2017-10-14T16:34:21.172Z,21.20
2017-10-14T16:36:52.739Z,21.20
2017-10-14T16:39:25.441Z,21.20
2017-10-14T16:41:56.744Z,21.10
2017-10-14T16:44:28.707Z,21.10
2017-10-14T16:47:00.918Z,21.00
2017-10-14T16:49:31.952Z,21.00
2017-10-14T16:52:03.381Z,20.90
2017-10-14T16:54:34.863Z,20.80
2017-10-14T16:57:06.737Z,20.60
2017-10-14T16:59:39.200Z,20.50
2017-10-14T17:02:10.422Z,20.40
2017-10-14T17:04:41.657Z,20.40
2017-10-14T17:07:14.148Z,20.30
2017-10-14T17:09:47.163Z,20.10
2017-10-14T17:12:19.532Z,20.10
2017-10-14T17:14:51.610Z,20.00
2017-10-14T17:17:23.095Z,20.00
2017-10-14T17:19:54.247Z,20.00
2017-10-14T17:22:25.673Z,19.80
2017-10-14T17:24:57.681Z,19.80
2017-10-14T17:27:28.558Z,19.70
2017-10-14T17:30:00.747Z,19.60
2017-10-14T17:32:32.001Z,19.60
2017-10-14T17:35:02.808Z,19.60
2017-10-14T17:37:35.461Z,19.50
2017-10-14T17:40:07.400Z,19.40
2017-10-14T17:42:39.007Z,19.40
2017-10-14T17:45:11.001Z,19.40
2017-10-14T17:47:42.647Z,19.40
2017-10-14T17:50:13.733Z,19.40
2017-10-14T17:52:45.459Z,19.30
2017-10-14T17:55:17.459Z,19.30
2017-10-14T17:57:50.419Z,19.20
2017-10-14T18:00:21.857Z,19.10
2017-10-14T18:02:53.057Z,19.10
2017-10-14T18:05:25.362Z,18.80
2017-10-14T18:07:56.607Z,18.80
2017-10-14T18:10:28.179Z,18.70
2017-10-14T18:12:59.581Z,18.50
2017-10-14T18:15:30.813Z,18.50
2017-10-14T18:18:01.628Z,18.40
2017-10-14T18:20:32.696Z,18.30
2017-10-14T18:23:05.211Z,18.20
2017-10-14T18:25:36.379Z,18.20
2017-10-14T18:28:07.570Z,18.20
2017-10-14T18:30:38.699Z,18.10
2017-10-14T18:33:10.980Z,18.10
2017-10-14T18:35:42.371Z,18.10
2017-10-14T18:38:13.467Z,18.10
2017-10-14T18:40:45.401Z,18.00
2017-10-14T18:43:16.916Z,18.00
2017-10-14T18:45:48.614Z,17.90
2017-10-14T18:48:20.623Z,17.90
2017-10-14T18:50:51.661Z,17.90
2017-10-14T18:53:23.502Z,17.90
2017-10-14T18:55:55.342Z,17.80
2017-10-14T18:58:26.341Z,17.80
2017-10-14T19:00:58.291Z,17.80
2017-10-14T19:03:29.919Z,17.80
2017-10-14T19:06:02.369Z,17.90
2017-10-14T19:08:34.196Z,17.90
2017-10-14T19:11:05.207Z,17.90
2017-10-14T19:13:36.725Z,17.90
2017-10-14T19:16:07.768Z,17.90
2017-10-14T19:18:39.939Z,17.80
2017-10-14T19:21:12.253Z,17.80
2017-10-14T19:23:43.915Z,17.80
2017-10-14T19:26:15.561Z,17.70
2017-10-14T19:28:47.287Z,17.70
2017-10-14T19:31:18.773Z,17.70
2017-10-14T19:33:50.523Z,17.60
2017-10-14T19:36:22.416Z,17.50
2017-10-14T19:38:53.807Z,17.50
2017-10-14T19:41:25.802Z,17.50
2017-10-14T19:43:56.694Z,17.40
2017-10-14T19:46:27.664Z,17.40
2017-10-14T19:48:58.678Z,17.30
2017-10-14T19:51:30.692Z,17.30
2017-10-14T19:54:03.546Z,17.20
2017-10-14T19:56:34.639Z,17.20
2017-10-14T19:59:05.605Z,17.20
2017-10-14T20:01:37.069Z,17.10
2017-10-14T20:04:08.724Z,17.10
2017-10-14T20:06:40.121Z,17.00
2017-10-14T20:09:13.592Z,17.00
2017-10-14T20:11:46.481Z,17.00
2017-10-14T20:14:17.165Z,16.90
2017-10-14T20:16:49.205Z,16.90
2017-10-14T20:19:20.645Z,16.80
2017-10-14T20:21:52.530Z,16.90
2017-10-14T20:24:24.099Z,16.90
2017-10-14T20:26:55.828Z,16.90
2017-10-14T20:29:26.769Z,16.90
2017-10-14T20:31:58.391Z,16.80
2017-10-14T20:34:29.421Z,16.80
2017-10-14T20:37:00.413Z,16.70
2017-10-14T20:39:31.527Z,16.70
2017-10-14T20:42:02.493Z,16.60
2017-10-14T20:44:33.598Z,16.60
2017-10-14T20:47:05.550Z,16.50
2017-10-14T20:49:36.717Z,16.50
2017-10-14T20:52:08.028Z,16.40
2017-10-14T20:54:38.963Z,16.40
2017-10-14T20:57:10.325Z,16.40
2017-10-14T20:59:40.857Z,16.40
2017-10-14T21:02:12.248Z,16.40
2017-10-14T21:04:43.148Z,16.40
2017-10-14T21:07:14.543Z,16.40
2017-10-14T21:09:45.017Z,16.40
2017-10-14T21:12:16.558Z,16.30
2017-10-14T21:14:47.598Z,16.30
2017-10-14T21:17:18.630Z,16.30
2017-10-14T21:19:50.224Z,16.30
2017-10-14T21:22:21.540Z,16.20
2017-10-14T21:24:52.995Z,16.30
2017-10-14T21:27:24.587Z,16.20
2017-10-14T21:29:55.708Z,16.20
2017-10-14T21:32:26.968Z,16.20
2017-10-14T21:34:58.317Z,16.10
2017-10-14T21:37:30.513Z,16.00
2017-10-14T21:40:02.095Z,16.00
2017-10-14T21:42:34.036Z,15.90
2017-10-14T21:45:05.650Z,15.80
2017-10-14T21:47:36.299Z,15.80
2017-10-14T21:50:07.440Z,15.80
2017-10-14T21:52:38.824Z,15.80
2017-10-14T21:55:09.500Z,15.80
2017-10-14T21:57:41.166Z,15.80
2017-10-14T22:00:13.016Z,15.80
2017-10-14T22:02:44.055Z,15.80
2017-10-14T22:05:14.680Z,15.70
2017-10-14T22:07:45.261Z,15.70
2017-10-14T22:10:17.040Z,15.70
2017-10-14T22:12:48.572Z,15.60
2017-10-14T22:15:19.722Z,15.60
2017-10-14T22:17:51.640Z,15.60
2017-10-14T22:20:22.834Z,15.60
2017-10-14T22:22:55.074Z,15.60
2017-10-14T22:25:27.138Z,15.60
2017-10-14T22:27:57.920Z,15.60
2017-10-14T22:30:29.041Z,15.60
2017-10-14T22:33:00.982Z,15.60
2017-10-14T22:35:31.838Z,15.60
2017-10-14T22:38:03.227Z,15.50
2017-10-14T22:40:33.950Z,15.50
2017-10-14T22:43:05.269Z,15.50
2017-10-14T22:45:37.109Z,15.40
2017-10-14T22:48:08.238Z,15.40
2017-10-14T22:50:39.567Z,15.40
2017-10-14T22:53:11.630Z,15.40
2017-10-14T22:55:42.792Z,15.30
2017-10-14T22:58:13.721Z,15.30
2017-10-14T23:00:44.944Z,15.20
2017-10-14T23:03:15.915Z,15.20
2017-10-14T23:05:46.586Z,15.20
2017-10-14T23:08:17.895Z,15.10
2017-10-14T23:10:49.196Z,15.10
2017-10-14T23:13:20.414Z,15.00
2017-10-14T23:15:53.144Z,15.00
2017-10-14T23:18:24.436Z,15.00
2017-10-14T23:20:55.782Z,15.00
2017-10-14T23:23:27.259Z,14.90
2017-10-14T23:25:58.093Z,14.90
2017-10-14T23:28:29.020Z,14.90
2017-10-14T23:30:59.918Z,14.90
2017-10-14T23:33:31.758Z,14.80
2017-10-14T23:36:02.738Z,14.80
2017-10-14T23:38:34.384Z,14.80
2017-10-14T23:41:04.649Z,14.70
2017-10-14T23:43:35.519Z,14.70
2017-10-14T23:46:07.125Z,14.70
2017-10-14T23:48:38.613Z,14.70
2017-10-14T23:51:09.553Z,14.70
2017-10-14T23:53:40.631Z,14.70
2017-10-14T23:56:11.224Z,14.60
2017-10-14T23:58:42.596Z,14.70
